createdAt,value
2022-11-15T00:00:51.441Z,79.82
2022-11-15T00:03:58.177Z,76.43
2022-11-15T00:07:04.964Z,82.34
2022-11-15T00:10:11.547Z,79.75
2022-11-15T00:13:18.058Z,81.24
2022-11-15T00:16:26.472Z,80.71
2022-11-15T00:19:33.327Z,85.19
2022-11-15T00:22:40.039Z,82.09
2022-11-15T00:25:46.538Z,88.56
2022-11-15T00:28:54.481Z,93.22
2022-11-15T00:32:02.339Z,96.91
2022-11-15T00:35:09.568Z,96.83
2022-11-15T00:38:16.018Z,96.71
2022-11-15T00:41:22.670Z,93.44
2022-11-15T00:44:29.153Z,92.83
2022-11-15T00:47:36.867Z,90.73
2022-11-15T00:50:43.270Z,90.22
2022-11-15T00:53:50.060Z,90.13
2022-11-15T00:56:56.438Z,90.71
2022-11-15T01:00:02.753Z,91.81
2022-11-15T01:03:10.731Z,96.66
2022-11-15T01:06:17.149Z,94.90
2022-11-15T01:09:24.122Z,100.00
2022-11-15T01:12:30.833Z,100.00
2022-11-15T01:15:41.151Z,100.00
2022-11-15T01:18:49.113Z,100.00
2022-11-15T01:21:55.481Z,100.00
2022-11-15T01:25:02.143Z,100.00
2022-11-15T01:28:08.616Z,100.00
2022-11-15T01:31:17.688Z,100.00
2022-11-15T01:34:25.639Z,100.00
2022-11-15T01:37:32.073Z,100.00
2022-11-15T01:40:38.599Z,100.00
2022-11-15T01:43:45.263Z,100.00
2022-11-15T01:46:51.855Z,100.00
2022-11-15T01:50:04.133Z,99.74
2022-11-15T01:53:11.795Z,99.82
2022-11-15T01:56:26.921Z,100.00
2022-11-15T01:59:34.016Z,100.00
2022-11-15T02:02:41.044Z,100.00
2022-11-15T02:05:49.214Z,100.00
2022-11-15T02:08:58.295Z,100.00
2022-11-15T02:12:05.781Z,100.00
2022-11-15T02:15:13.289Z,100.00
2022-11-15T02:18:28.339Z,100.00
2022-11-15T02:21:43.139Z,100.00
2022-11-15T02:25:15.758Z,100.00
2022-11-15T02:28:47.411Z,100.00
2022-11-15T02:32:04.101Z,100.00
2022-11-15T02:35:17.735Z,100.00
2022-11-15T02:38:32.914Z,100.00
2022-11-15T02:41:48.041Z,100.00
2022-11-15T02:44:57.404Z,100.00
2022-11-15T02:48:06.988Z,100.00
2022-11-15T02:51:15.466Z,100.00
2022-11-15T02:54:24.191Z,100.00
2022-11-15T02:57:46.147Z,100.00
2022-11-15T03:01:01.778Z,100.00
2022-11-15T03:04:24.168Z,100.00
2022-11-15T03:07:37.336Z,100.00
2022-11-15T03:10:50.968Z,100.00
2022-11-15T03:14:00.894Z,100.00
2022-11-15T03:17:17.586Z,100.00
2022-11-15T03:20:28.488Z,100.00
2022-11-15T03:23:36.880Z,100.00
2022-11-15T03:26:47.605Z,100.00
2022-11-15T03:29:59.779Z,100.00
2022-11-15T03:33:07.090Z,100.00
2022-11-15T03:36:16.280Z,100.00
2022-11-15T03:39:23.828Z,100.00
2022-11-15T03:42:34.153Z,100.00
2022-11-15T03:45:47.076Z,100.00
2022-11-15T03:48:58.894Z,100.00
2022-11-15T03:52:07.810Z,100.00
2022-11-15T03:55:19.923Z,100.00
2022-11-15T03:58:26.460Z,100.00
2022-11-15T04:01:32.767Z,100.00
2022-11-15T04:04:39.142Z,100.00
2022-11-15T04:07:47.157Z,100.00
2022-11-15T04:10:53.768Z,100.00
2022-11-15T04:14:00.497Z,100.00
2022-11-15T04:17:07.097Z,100.00
2022-11-15T04:20:33.550Z,100.00
2022-11-15T04:24:02.299Z,100.00
2022-11-15T04:27:09.056Z,100.00
2022-11-15T04:30:15.357Z,100.00
2022-11-15T04:33:21.635Z,100.00
2022-11-15T04:36:45.688Z,100.00
2022-11-15T04:39:53.641Z,100.00
2022-11-15T04:43:03.803Z,100.00
2022-11-15T04:46:11.054Z,100.00
2022-11-15T04:49:17.413Z,100.00
2022-11-15T04:52:23.781Z,100.00
2022-11-15T04:55:31.469Z,100.00
2022-11-15T04:58:37.773Z,100.00
2022-11-15T05:01:45.262Z,100.00
2022-11-15T05:04:50.753Z,100.00
2022-11-15T05:07:57.274Z,100.00
2022-11-15T05:11:05.048Z,100.00
2022-11-15T05:14:11.407Z,100.00
2022-11-15T05:17:17.826Z,100.00
2022-11-15T05:20:24.433Z,100.00
2022-11-15T05:23:31.422Z,100.00
2022-11-15T05:26:39.759Z,100.00
2022-11-15T05:29:46.233Z,100.00
2022-11-15T05:32:52.868Z,100.00
2022-11-15T05:36:04.746Z,100.00
2022-11-15T05:39:11.251Z,100.00
2022-11-15T05:42:19.728Z,100.00
2022-11-15T05:45:27.112Z,100.00
2022-11-15T05:48:36.126Z,100.00
2022-11-15T05:51:45.350Z,100.00
2022-11-15T05:54:52.889Z,100.00
2022-11-15T05:58:01.579Z,100.00
2022-11-15T06:01:07.925Z,100.00
2022-11-15T06:04:14.214Z,100.00
2022-11-15T06:07:20.542Z,100.00
2022-11-15T06:10:26.888Z,100.00
2022-11-15T06:13:35.484Z,100.00
2022-11-15T06:16:41.725Z,100.00
2022-11-15T06:19:48.323Z,100.00
2022-11-15T06:22:58.682Z,100.00
2022-11-15T06:26:05.777Z,100.00
2022-11-15T06:29:13.379Z,100.00
2022-11-15T06:32:19.712Z,100.00
2022-11-15T06:35:26.148Z,100.00
2022-11-15T06:38:32.548Z,100.00
2022-11-15T06:41:39.017Z,100.00
2022-11-15T06:44:46.773Z,100.00
2022-11-15T06:47:53.307Z,100.00
2022-11-15T06:51:02.517Z,100.00
2022-11-15T06:54:08.932Z,100.00
2022-11-15T06:57:15.698Z,100.00
2022-11-15T07:00:24.633Z,100.00
2022-11-15T07:03:31.515Z,100.00
2022-11-15T07:06:17.948Z,100.00
2022-11-15T07:09:04.612Z,100.00
2022-11-15T07:11:50.970Z,100.00
2022-11-15T07:14:37.088Z,100.00
2022-11-15T07:17:24.743Z,100.00
2022-11-15T07:20:12.382Z,100.00
2022-11-15T07:23:02.797Z,100.00
2022-11-15T07:25:49.401Z,100.00
2022-11-15T07:28:36.482Z,100.00
2022-11-15T07:31:23.466Z,100.00
2022-11-15T07:34:11.521Z,100.00
2022-11-15T07:36:57.613Z,100.00
2022-11-15T07:39:43.740Z,100.00
2022-11-15T07:42:50.686Z,100.00
2022-11-15T07:45:42.787Z,100.00
2022-11-15T07:48:42.172Z,100.00
2022-11-15T07:51:31.184Z,100.00
2022-11-15T07:54:17.354Z,100.00
2022-11-15T07:57:07.292Z,100.00
2022-11-15T07:59:53.984Z,100.00
2022-11-15T08:02:40.426Z,100.00
2022-11-15T08:05:27.098Z,100.00
2022-11-15T08:08:14.696Z,100.00
2022-11-15T08:11:01.236Z,100.00
2022-11-15T08:13:47.595Z,100.00
2022-11-15T08:16:33.938Z,100.00
2022-11-15T08:19:20.901Z,100.00
2022-11-15T08:22:07.286Z,100.00
2022-11-15T08:24:54.759Z,100.00
2022-11-15T08:27:41.102Z,100.00
2022-11-15T08:30:28.040Z,100.00
2022-11-15T08:33:15.716Z,96.60
2022-11-15T08:36:02.801Z,97.43
2022-11-15T08:38:49.084Z,95.50
2022-11-15T08:41:39.097Z,93.95
2022-11-15T08:44:25.941Z,95.78
2022-11-15T08:47:12.998Z,96.92
2022-11-15T08:49:59.229Z,95.58
2022-11-15T08:52:45.772Z,98.44
2022-11-15T08:55:32.110Z,99.54
2022-11-15T08:58:19.903Z,100.00
2022-11-15T09:01:06.932Z,100.00
2022-11-15T09:03:53.670Z,100.00
2022-11-15T09:06:43.045Z,100.00
2022-11-15T09:09:29.534Z,100.00
2022-11-15T09:12:15.809Z,100.00
2022-11-15T09:15:03.618Z,100.00
2022-11-15T09:17:49.965Z,100.00
2022-11-15T09:20:36.431Z,100.00
2022-11-15T09:23:22.843Z,100.00
2022-11-15T09:26:09.718Z,100.00
2022-11-15T09:28:56.132Z,100.00
2022-11-15T09:31:43.696Z,100.00
2022-11-15T09:34:30.013Z,100.00
2022-11-15T09:37:16.233Z,100.00
2022-11-15T09:40:02.689Z,100.00
2022-11-15T09:43:06.840Z,100.00
2022-11-15T09:46:03.191Z,100.00
2022-11-15T09:48:58.005Z,100.00
2022-11-15T09:51:51.004Z,99.43
2022-11-15T09:57:19.733Z,95.06
2022-11-15T10:00:30.955Z,95.55
2022-11-15T10:03:06.454Z,93.71
2022-11-15T10:05:40.676Z,94.45
2022-11-15T10:08:23.182Z,96.30
2022-11-15T10:11:09.729Z,94.39
2022-11-15T10:13:44.849Z,94.19
2022-11-15T10:16:27.036Z,97.17
2022-11-15T10:19:03.268Z,98.38
2022-11-15T10:21:46.088Z,95.66
2022-11-15T10:24:14.880Z,93.25
2022-11-15T10:26:48.666Z,96.34
2022-11-15T10:29:26.468Z,96.01
2022-11-15T10:31:54.622Z,98.30
2022-11-15T10:34:23.931Z,97.37
2022-11-15T10:36:58.752Z,97.98
2022-11-15T10:39:28.094Z,97.55
2022-11-15T10:41:55.923Z,97.39
2022-11-15T10:44:26.985Z,95.53
2022-11-15T10:47:23.706Z,97.64
2022-11-15T10:50:00.276Z,95.69
2022-11-15T10:52:31.645Z,94.47
2022-11-15T10:55:05.612Z,95.33
2022-11-15T10:57:36.332Z,90.84
2022-11-15T11:00:07.442Z,90.19
2022-11-15T11:02:38.606Z,89.07
2022-11-15T11:05:08.338Z,89.22
2022-11-15T11:07:37.823Z,88.03
2022-11-15T11:10:44.528Z,89.75
2022-11-15T11:13:16.501Z,85.67
2022-11-15T11:15:47.821Z,86.45
2022-11-15T11:18:21.541Z,88.69
2022-11-15T11:20:54.637Z,89.20
2022-11-15T11:23:47.778Z,92.21
2022-11-15T11:26:33.390Z,90.39
2022-11-15T11:29:10.021Z,90.99
2022-11-15T11:31:44.194Z,89.55
2022-11-15T11:34:24.123Z,88.40
2022-11-15T11:37:02.603Z,87.00
2022-11-15T11:39:46.388Z,91.32
2022-11-15T11:42:25.910Z,94.31
2022-11-15T11:45:07.641Z,87.70
2022-11-15T11:47:40.859Z,84.97
2022-11-15T11:50:15.687Z,92.03
2022-11-15T11:52:51.136Z,93.85
2022-11-15T11:55:25.368Z,91.06
2022-11-15T11:57:59.068Z,87.62
2022-11-15T12:00:29.363Z,84.21
2022-11-15T12:03:07.409Z,85.85
2022-11-15T12:05:41.251Z,85.66
2022-11-15T12:08:25.601Z,88.76
2022-11-15T12:11:01.554Z,91.40
2022-11-15T12:13:34.857Z,86.32
2022-11-15T12:16:10.804Z,84.22
2022-11-15T12:18:39.457Z,85.28
2022-11-15T12:21:10.336Z,83.54
2022-11-15T12:23:44.410Z,84.44
2022-11-15T12:26:19.863Z,84.48
2022-11-15T12:29:06.450Z,89.94
2022-11-15T12:31:40.395Z,90.90
2022-11-15T12:34:30.816Z,88.17
2022-11-15T12:36:58.424Z,93.66
2022-11-15T12:39:59.635Z,92.12
2022-11-15T12:42:58.508Z,91.59
2022-11-15T12:45:29.471Z,91.91
2022-11-15T12:48:28.695Z,91.87
2022-11-15T12:50:58.997Z,91.49
2022-11-15T12:53:28.695Z,92.73
2022-11-15T12:56:23.863Z,91.49
2022-11-15T12:58:56.531Z,94.65
2022-11-15T13:02:01.001Z,98.05
2022-11-15T13:04:31.312Z,97.95
2022-11-15T13:07:01.674Z,99.76
2022-11-15T13:09:56.176Z,100.00
2022-11-15T13:12:56.185Z,100.00
2022-11-15T13:15:43.068Z,97.82
2022-11-15T13:18:35.395Z,96.72
2022-11-15T13:21:27.077Z,93.90
2022-11-15T13:23:58.087Z,94.18
2022-11-15T13:26:26.439Z,95.34
2022-11-15T13:28:56.289Z,97.82
2022-11-15T13:31:29.846Z,96.42
2022-11-15T13:34:01.385Z,97.99
2022-11-15T13:36:31.317Z,95.20
2022-11-15T13:39:01.562Z,96.36
2022-11-15T13:41:31.335Z,96.55
2022-11-15T13:44:00.656Z,99.86
2022-11-15T13:46:30.935Z,100.00
2022-11-15T13:49:00.442Z,97.86
2022-11-15T13:51:35.804Z,99.19
2022-11-15T13:54:14.622Z,96.18
2022-11-15T13:56:46.031Z,93.86
2022-11-15T13:59:20.420Z,93.81
2022-11-15T14:01:50.196Z,99.80
2022-11-15T14:04:22.112Z,98.90
2022-11-15T14:06:52.702Z,100.00
2022-11-15T14:09:38.765Z,100.00
2022-11-15T14:12:28.849Z,100.00
2022-11-15T14:14:56.800Z,100.00
2022-11-15T14:17:38.627Z,100.00
2022-11-15T14:20:27.320Z,100.00
2022-11-15T14:22:56.753Z,100.00
2022-11-15T14:25:25.186Z,100.00
2022-11-15T14:28:14.598Z,100.00
2022-11-15T14:30:44.072Z,100.00
2022-11-15T14:33:25.797Z,100.00
2022-11-15T14:35:54.317Z,100.00
2022-11-15T14:38:22.014Z,100.00
2022-11-15T14:40:49.712Z,100.00
2022-11-15T14:43:17.605Z,100.00
2022-11-15T14:45:45.379Z,100.00
2022-11-15T14:48:12.982Z,100.00
2022-11-15T14:50:42.339Z,100.00
2022-11-15T14:53:14.691Z,100.00
2022-11-15T14:55:42.577Z,100.00
2022-11-15T14:58:10.478Z,100.00
2022-11-15T15:00:39.807Z,100.00
2022-11-15T15:03:08.374Z,100.00
2022-11-15T15:05:38.280Z,100.00
2022-11-15T15:08:08.029Z,100.00
2022-11-15T15:10:41.054Z,100.00
2022-11-15T15:13:18.594Z,100.00
2022-11-15T15:15:46.457Z,100.00
2022-11-15T15:18:14.217Z,100.00
2022-11-15T15:20:43.947Z,100.00
2022-11-15T15:23:17.265Z,100.00
2022-11-15T15:25:46.391Z,100.00
2022-11-15T15:28:14.783Z,100.00
2022-11-15T15:30:42.933Z,100.00
2022-11-15T15:33:10.608Z,100.00
2022-11-15T15:35:38.330Z,100.00
2022-11-15T15:38:06.110Z,100.00
2022-11-15T15:40:35.418Z,100.00
2022-11-15T15:43:03.081Z,100.00
2022-11-15T15:45:31.103Z,100.00
2022-11-15T15:47:58.824Z,100.00
2022-11-15T15:50:28.548Z,100.00
2022-11-15T15:52:58.597Z,100.00
2022-11-15T15:55:27.140Z,100.00
2022-11-15T15:57:56.782Z,100.00
2022-11-15T16:00:26.655Z,100.00
2022-11-15T16:02:54.877Z,100.00
2022-11-15T16:05:23.233Z,100.00
2022-11-15T16:07:50.945Z,100.00
2022-11-15T16:10:21.769Z,99.08
2022-11-15T16:12:49.787Z,96.91
2022-11-15T16:15:19.806Z,98.71
2022-11-15T16:17:50.949Z,96.30
2022-11-15T16:20:35.257Z,98.36
2022-11-15T16:23:08.812Z,97.62
2022-11-15T16:25:41.735Z,98.32
2022-11-15T16:28:18.523Z,98.67
2022-11-15T16:30:49.983Z,100.00
2022-11-15T16:33:21.453Z,97.79
2022-11-15T16:35:49.802Z,98.78
2022-11-15T16:38:17.706Z,99.06
2022-11-15T16:40:45.780Z,99.68
2022-11-15T16:43:13.737Z,100.00
2022-11-15T16:45:41.398Z,100.00
2022-11-15T16:48:22.865Z,100.00
2022-11-15T16:50:50.548Z,100.00
2022-11-15T16:53:18.300Z,98.49
2022-11-15T16:55:45.936Z,99.77
2022-11-15T16:58:13.597Z,97.30
2022-11-15T17:00:41.503Z,98.45
2022-11-15T17:03:09.312Z,98.65
2022-11-15T17:05:38.444Z,99.46
2022-11-15T17:08:06.453Z,96.81
2022-11-15T17:10:34.117Z,96.76
2022-11-15T17:13:01.924Z,98.53
2022-11-15T17:15:29.599Z,94.96
2022-11-15T17:17:57.228Z,95.26
2022-11-15T17:20:26.711Z,95.59
2022-11-15T17:22:57.262Z,94.02
2022-11-15T17:25:24.891Z,92.55
2022-11-15T17:27:52.589Z,92.07
2022-11-15T17:30:20.282Z,92.35
2022-11-15T17:32:49.633Z,92.77
2022-11-15T17:35:17.467Z,91.54
2022-11-15T17:37:45.313Z,91.04
2022-11-15T17:40:14.525Z,92.90
2022-11-15T17:42:42.742Z,92.24
2022-11-15T17:45:12.220Z,90.93
2022-11-15T17:47:39.961Z,90.31
2022-11-15T17:50:07.883Z,88.73
2022-11-15T17:52:35.522Z,89.21
2022-11-15T17:55:03.167Z,90.57
2022-11-15T17:57:32.222Z,90.66
2022-11-15T17:59:59.913Z,90.12
2022-11-15T18:02:27.664Z,91.06
2022-11-15T18:04:55.270Z,92.75
2022-11-15T18:07:22.937Z,93.31
2022-11-15T18:09:50.673Z,91.26
2022-11-15T18:12:19.659Z,91.96
2022-11-15T18:14:48.660Z,92.07
2022-11-15T18:17:18.414Z,92.00
2022-11-15T18:19:46.093Z,92.00
2022-11-15T18:22:13.758Z,92.27
2022-11-15T18:24:42.844Z,91.13
2022-11-15T18:27:10.868Z,92.38
2022-11-15T18:29:38.557Z,91.25
2022-11-15T18:32:12.193Z,92.84
2022-11-15T18:34:39.896Z,91.11
2022-11-15T18:37:08.189Z,92.49
2022-11-15T18:39:36.255Z,90.77
2022-11-15T18:42:04.367Z,89.68
2022-11-15T18:44:32.050Z,91.53
2022-11-15T18:46:59.740Z,90.02
2022-11-15T18:49:28.697Z,90.42
2022-11-15T18:51:56.955Z,90.29
2022-11-15T18:54:30.628Z,90.72
2022-11-15T18:56:59.147Z,90.73
2022-11-15T18:59:27.558Z,92.05
2022-11-15T19:01:55.989Z,89.94
2022-11-15T19:04:23.856Z,90.63
2022-11-15T19:06:53.444Z,90.64
2022-11-15T19:09:21.258Z,90.85
2022-11-15T19:11:51.267Z,92.58
2022-11-15T19:14:23.757Z,94.55
2022-11-15T19:16:52.236Z,94.91
2022-11-15T19:19:21.993Z,96.16
2022-11-15T19:21:49.869Z,100.00
2022-11-15T19:24:19.133Z,97.55
2022-11-15T19:26:47.550Z,96.37
2022-11-15T19:29:15.567Z,93.73
2022-11-15T19:31:43.299Z,93.70
2022-11-15T19:34:12.763Z,94.95
2022-11-15T19:36:41.703Z,94.56
2022-11-15T19:39:12.759Z,100.00
2022-11-15T19:41:43.322Z,99.93
2022-11-15T19:44:12.060Z,100.00
2022-11-15T19:46:40.517Z,100.00
2022-11-15T19:49:10.657Z,100.00
2022-11-15T19:51:41.501Z,100.00
2022-11-15T19:54:10.284Z,99.83
2022-11-15T19:56:39.566Z,98.86
2022-11-15T19:59:11.399Z,98.36
2022-11-15T20:01:39.497Z,99.35
2022-11-15T20:04:09.899Z,95.30
2022-11-15T20:06:40.203Z,95.91
2022-11-15T20:09:08.602Z,97.12
2022-11-15T20:11:37.925Z,96.37
2022-11-15T20:14:06.644Z,94.29
2022-11-15T20:16:35.930Z,94.03
2022-11-15T20:19:03.566Z,94.69
2022-11-15T20:21:31.504Z,92.92
2022-11-15T20:23:59.239Z,93.57
2022-11-15T20:26:27.008Z,92.09
2022-11-15T20:29:00.900Z,92.21
2022-11-15T20:31:29.415Z,92.16
2022-11-15T20:33:58.635Z,92.61
2022-11-15T20:36:26.579Z,93.25
2022-11-15T20:38:57.742Z,94.71
2022-11-15T20:41:25.323Z,97.22
2022-11-15T20:43:53.246Z,96.49
2022-11-15T20:46:21.123Z,97.18
2022-11-15T20:48:48.796Z,98.89
2022-11-15T20:51:19.205Z,100.00
2022-11-15T20:53:47.888Z,100.00
2022-11-15T20:56:18.242Z,100.00
2022-11-15T20:58:46.857Z,100.00
2022-11-15T21:01:16.210Z,100.00
2022-11-15T21:04:04.465Z,100.00
2022-11-15T21:06:53.733Z,100.00
2022-11-15T21:09:59.321Z,100.00
2022-11-15T21:12:47.624Z,100.00
2022-11-15T21:15:35.518Z,100.00
2022-11-15T21:18:23.454Z,100.00
2022-11-15T21:21:11.649Z,100.00
2022-11-15T21:24:02.942Z,100.00
2022-11-15T21:26:51.203Z,100.00
2022-11-15T21:29:39.551Z,100.00
2022-11-15T21:32:28.941Z,100.00
2022-11-15T21:35:17.108Z,100.00
2022-11-15T21:38:05.049Z,100.00
2022-11-15T21:40:54.685Z,100.00
2022-11-15T21:43:42.603Z,100.00
2022-11-15T21:46:31.753Z,100.00
2022-11-15T21:49:20.765Z,100.00
2022-11-15T21:52:08.741Z,100.00
2022-11-15T21:54:56.674Z,100.00
2022-11-15T21:57:45.988Z,100.00
2022-11-15T22:00:51.875Z,100.00
2022-11-15T22:03:39.982Z,100.00
2022-11-15T22:06:27.928Z,100.00
2022-11-15T22:09:15.892Z,100.00
2022-11-15T22:12:03.987Z,100.00
2022-11-15T22:14:53.265Z,100.00
2022-11-15T22:17:59.387Z,100.00
2022-11-15T22:20:54.198Z,100.00
2022-11-15T22:23:43.346Z,100.00
2022-11-15T22:26:31.453Z,100.00
2022-11-15T22:29:19.538Z,100.00
2022-11-15T22:32:09.001Z,100.00
2022-11-15T22:34:57.114Z,100.00
2022-11-15T22:37:45.469Z,100.00
2022-11-15T22:40:33.570Z,100.00
2022-11-15T22:43:24.079Z,100.00
2022-11-15T22:46:12.171Z,100.00
2022-11-15T22:49:03.420Z,100.00
2022-11-15T22:51:51.810Z,100.00
2022-11-15T22:54:40.254Z,100.00
2022-11-15T22:57:28.415Z,100.00
2022-11-15T23:00:17.858Z,100.00
2022-11-15T23:03:06.280Z,100.00
2022-11-15T23:05:56.116Z,100.00
2022-11-15T23:08:44.204Z,100.00
2022-11-15T23:11:49.812Z,100.00
2022-11-15T23:14:37.942Z,100.00
2022-11-15T23:17:26.139Z,100.00
2022-11-15T23:20:36.706Z,100.00
2022-11-15T23:23:23.842Z,100.00
2022-11-15T23:26:12.095Z,100.00
2022-11-15T23:29:00.195Z,100.00
2022-11-15T23:32:06.155Z,100.00
2022-11-15T23:34:54.216Z,100.00
2022-11-15T23:37:42.561Z,100.00
2022-11-15T23:40:32.002Z,100.00
2022-11-15T23:43:20.251Z,100.00
2022-11-15T23:46:08.316Z,100.00
2022-11-15T23:48:56.573Z,100.00
2022-11-15T23:51:44.787Z,100.00
2022-11-15T23:54:32.840Z,100.00
2022-11-15T23:57:23.201Z,100.00
